Time;durP1;ratioP1;P1;durP2;ratioP2;P2;SDS_P1;SDS_P2;PMS_P1;PMS_P2;Temp;Humidity;BMP_temperature;BMP_pressure;BME280_temperature;BME280_humidity;BME280_pressure;Samples;Min_cycle;Max_cycle;Signal;HPM_P1;HPM_P2
2022/07/26 00:00:09;;;;;;;5.50;3.20;;;;;;;19.83;55.83;96168.20;108566;1268;23019;-82
2022/07/26 00:03:01;;;;;;;4.80;3.20;;;;;;;19.84;55.72;96166.38;108563;1268;23341;-82
2022/07/26 00:05:37;;;;;;;3.20;2.90;;;;;;;19.85;55.58;96170.80;108354;1268;102540;-82
2022/07/26 00:08:12;;;;;;;4.40;2.90;;;;;;;19.84;55.54;96170.97;108567;1268;22638;-82
2022/07/26 00:10:56;;;;;;;3.70;2.90;;;;;;;19.85;55.55;96169.65;108555;1268;23242;-82
2022/07/26 00:13:28;;;;;;;4.10;2.80;;;;;;;19.87;55.44;96171.46;108338;1268;98028;-80
2022/07/26 00:16:00;;;;;;;3.20;2.60;;;;;;;19.85;55.29;96170.94;108560;1268;23438;-82
2022/07/26 00:18:34;;;;;;;5.00;3.20;;;;;;;19.86;55.30;96165.52;108564;1268;22969;-82
2022/07/26 00:21:08;;;;;;;3.40;2.90;;;;;;;19.88;55.17;96166.40;108571;1268;22611;-81
2022/07/26 00:23:40;;;;;;;3.70;2.90;;;;;;;19.89;55.20;96163.19;104193;1267;5510713;-81
2022/07/26 00:26:16;;;;;;;3.80;3.10;;;;;;;19.87;55.11;96161.54;108514;1268;22531;-81
2022/07/26 00:28:48;;;;;;;3.10;2.80;;;;;;;19.84;55.15;96158.63;108548;1268;22608;-82
2022/07/26 00:31:24;;;;;;;3.50;2.80;;;;;;;19.82;55.06;96154.41;108552;1268;22473;-82
2022/07/26 00:33:59;;;;;;;4.90;3.00;;;;;;;19.83;55.11;96154.67;108400;1266;93972;-82
2022/07/26 00:36:33;;;;;;;3.70;2.70;;;;;;;19.84;55.03;96150.77;108537;1268;22555;-81
2022/07/26 00:39:09;;;;;;;3.70;3.10;;;;;;;19.84;54.94;96148.39;108538;1267;23850;-81
2022/07/26 00:41:45;;;;;;;3.90;2.90;;;;;;;19.86;54.86;96145.77;108573;1268;22689;-81
2022/07/26 00:44:19;;;;;;;5.40;3.30;;;;;;;19.87;54.78;96143.70;108228;1267;85064;-81
2022/07/26 00:46:50;;;;;;;3.60;3.20;;;;;;;19.84;54.77;96143.18;108558;1268;22580;-82
2022/07/26 00:49:22;;;;;;;3.60;3.10;;;;;;;19.82;54.93;96137.96;108564;1268;22575;-82
2022/07/26 00:51:53;;;;;;;8.80;3.20;;;;;;;19.84;54.92;96137.77;108553;1267;24416;-82
2022/07/26 00:54:25;;;;;;;3.80;3.00;;;;;;;19.86;54.75;96133.31;108360;1268;71221;-81
2022/07/26 00:57:01;;;;;;;4.00;3.20;;;;;;;19.94;54.55;96136.24;108423;1267;22563;-81
2022/07/26 00:59:33;;;;;;;3.90;3.00;;;;;;;20.09;54.14;96138.66;108376;1267;22534;-82
2022/07/26 01:02:12;;;;;;;3.60;2.80;;;;;;;20.18;53.80;96135.47;108376;1267;22522;-82
2022/07/26 01:04:48;;;;;;;4.00;3.20;;;;;;;20.20;53.58;96137.14;108224;1267;81057;-81
2022/07/26 01:07:25;;;;;;;6.00;3.00;;;;;;;20.11;53.64;96141.64;108421;1267;22574;-81
2022/07/26 01:09:59;;;;;;;3.60;2.90;;;;;;;19.98;53.68;96138.02;108430;1267;25403;-81
2022/07/26 01:12:39;;;;;;;3.70;2.90;;;;;;;19.83;53.94;96132.39;108416;1267;22737;-82
2022/07/26 01:15:17;;;;;;;4.60;3.30;;;;;;;19.54;54.61;96128.30;106546;1268;2269076;-82
2022/07/26 01:17:51;;;;;;;3.40;3.10;;;;;;;19.27;55.25;96128.61;108478;1267;22765;-81
2022/07/26 01:20:29;;;;;;;3.70;3.30;;;;;;;19.10;55.47;96119.89;108559;1268;22554;-81
2022/07/26 01:23:02;;;;;;;3.90;3.20;;;;;;;19.06;55.63;96122.09;108390;1267;22528;-81
2022/07/26 01:25:42;;;;;;;4.20;3.40;;;;;;;19.02;55.68;96119.30;103999;1268;5516824;-82
2022/07/26 01:28:18;;;;;;;3.30;3.00;;;;;;;19.02;55.66;96111.38;108409;1267;25370;-82
2022/07/26 01:30:50;;;;;;;4.70;3.00;;;;;;;19.01;55.57;96115.66;108397;1267;25254;-82
2022/07/26 01:33:21;;;;;;;3.60;3.10;;;;;;;18.99;55.60;96111.70;108400;1267;22641;-81
2022/07/26 01:35:52;;;;;;;4.00;3.20;;;;;;;19.09;55.83;96117.55;108412;1267;23002;-81
2022/07/26 01:38:23;;;;;;;5.00;3.50;;;;;;;19.17;55.79;96111.71;108411;1267;22572;-81
2022/07/26 01:40:57;;;;;;;3.90;3.50;;;;;;;19.22;55.84;96109.30;108455;1267;22560;-81
2022/07/26 01:43:32;;;;;;;3.80;3.20;;;;;;;19.28;55.84;96110.98;108183;1267;118806;-81
2022/07/26 01:46:03;;;;;;;3.70;3.40;;;;;;;19.34;55.63;96107.28;108426;1267;22549;-81
2022/07/26 01:48:37;;;;;;;3.70;3.20;;;;;;;19.39;55.59;96096.43;108603;1267;22528;-82
2022/07/26 01:51:08;;;;;;;4.40;3.10;;;;;;;19.46;55.39;96098.52;108576;1268;25263;-81
2022/07/26 01:53:44;;;;;;;6.10;3.40;;;;;;;19.51;55.27;96092.34;108371;1268;76300;-82
2022/07/26 01:56:15;;;;;;;4.80;2.90;;;;;;;19.50;55.13;96093.55;108412;1267;22525;-82
2022/07/26 01:58:51;;;;;;;3.70;3.20;;;;;;;19.47;55.09;96089.95;108413;1267;25235;-82
2022/07/26 02:01:26;;;;;;;6.60;3.10;;;;;;;19.48;55.09;96091.44;108405;1267;24371;-82
2022/07/26 02:04:02;;;;;;;4.10;3.40;;;;;;;19.47;55.14;96092.02;108188;1267;77315;-81
2022/07/26 02:06:44;;;;;;;4.10;3.30;;;;;;;19.43;55.16;96083.94;108430;1266;22555;-82
2022/07/26 02:09:19;;;;;;;4.40;3.40;;;;;;;19.40;55.31;96080.92;108433;1267;22533;-81
2022/07/26 02:11:56;;;;;;;4.10;3.00;;;;;;;19.39;55.23;96077.77;108395;1267;22574;-81
2022/07/26 02:14:30;;;;;;;4.70;3.50;;;;;;;19.43;55.13;96072.94;108296;1267;84846;-81
2022/07/26 02:17:04;;;;;;;5.80;3.30;;;;;;;19.48;55.05;96070.30;108530;1267;22889;-81
2022/07/26 02:19:43;;;;;;;3.80;3.10;;;;;;;19.51;54.79;96070.15;108552;1267;22578;-83
2022/07/26 02:22:17;;;;;;;4.70;3.30;;;;;;;19.55;54.57;96068.80;108534;1268;22676;-82
2022/07/26 02:24:54;;;;;;;5.70;3.70;;;;;;;19.62;54.33;96067.28;106828;1268;1887205;-82
2022/07/26 02:27:28;;;;;;;4.70;3.90;;;;;;;19.70;54.07;96064.83;108575;1268;22687;-82
2022/07/26 02:30:14;;;;;;;6.30;3.40;;;;;;;19.79;53.83;96064.81;108499;1268;22555;-82
2022/07/26 02:32:54;;;;;;;5.70;4.10;;;;;;;19.82;53.63;96072.03;108503;1267;22469;-82
2022/07/26 02:35:26;;;;;;;3.50;3.20;;;;;;;19.82;53.54;96066.88;108373;1268;69810;-81
2022/07/26 02:38:10;;;;;;;5.60;3.70;;;;;;;19.84;53.50;96068.91;108548;1268;22621;-82
2022/07/26 02:40:44;;;;;;;4.80;3.50;;;;;;;19.84;53.43;96063.91;108539;1267;22618;-82
2022/07/26 02:43:19;;;;;;;4.60;3.60;;;;;;;19.83;53.24;96062.81;108527;1267;22809;-83
2022/07/26 02:45:53;;;;;;;4.60;3.60;;;;;;;19.80;53.37;96066.68;104745;1267;4578490;-82
2022/07/26 02:48:25;;;;;;;4.70;3.90;;;;;;;19.77;53.38;96059.45;108521;1266;22480;-82
2022/07/26 02:51:03;;;;;;;5.40;3.90;;;;;;;19.76;53.39;96058.61;108518;1268;22570;-82
2022/07/26 02:53:37;;;;;;;4.90;3.30;;;;;;;19.79;53.31;96055.35;108104;1268;224924;-82
2022/07/26 02:56:16;;;;;;;4.70;3.30;;;;;;;19.84;53.09;96062.45;108503;1267;24484;-82
2022/07/26 02:58:51;;;;;;;3.60;3.30;;;;;;;19.90;52.87;96054.52;108539;1267;25239;-83
2022/07/26 03:01:27;;;;;;;6.90;3.30;;;;;;;19.94;52.74;96054.60;108484;1266;22693;-82
2022/07/26 03:04:01;;;;;;;5.30;3.90;;;;;;;19.96;52.64;96053.66;108252;1267;177467;-82
2022/07/26 03:06:42;;;;;;;4.50;3.70;;;;;;;19.98;52.57;96049.69;108532;1265;22613;-82
2022/07/26 03:09:15;;;;;;;4.90;3.60;;;;;;;20.00;52.49;96042.61;108510;1268;22625;-82
2022/07/26 03:12:03;;;;;;;4.80;3.30;;;;;;;20.00;52.42;96041.30;108536;1266;22557;-81
2022/07/26 03:14:45;;;;;;;4.80;3.70;;;;;;;20.01;52.31;96037.55;108305;1268;92946;-82
2022/07/26 03:17:24;;;;;;;4.70;3.90;;;;;;;20.01;52.29;96034.01;108521;1267;22532;-82
2022/07/26 03:20:10;;;;;;;3.60;3.10;;;;;;;19.99;52.31;96029.89;108513;1268;24232;-82
2022/07/26 03:22:41;;;;;;;4.10;3.50;;;;;;;20.04;52.18;96033.14;108524;1267;22554;-82
2022/07/26 03:25:16;;;;;;;4.40;3.90;;;;;;;20.08;52.04;96039.37;108357;1268;63475;-82
2022/07/26 03:27:50;;;;;;;5.50;3.90;;;;;;;20.10;51.98;96034.04;108529;1267;22545;-82
2022/07/26 03:30:31;;;;;;;6.00;3.80;;;;;;;20.14;51.76;96031.14;108491;1268;22538;-82
2022/07/26 03:33:06;;;;;;;4.50;3.50;;;;;;;20.20;51.80;96026.08;108534;1267;25355;-82
2022/07/26 03:35:39;;;;;;;4.50;3.70;;;;;;;20.21;51.65;96025.19;106672;1267;2323433;-82
2022/07/26 03:38:15;;;;;;;6.00;3.60;;;;;;;20.23;51.68;96024.67;108538;1267;25371;-81
2022/07/26 03:40:49;;;;;;;5.80;3.90;;;;;;;20.25;51.49;96022.78;108523;1267;24255;-82
2022/07/26 03:43:23;;;;;;;3.70;3.40;;;;;;;20.26;51.50;96018.44;108518;1267;22549;-82
2022/07/26 03:45:57;;;;;;;5.10;3.80;;;;;;;20.29;51.37;96015.67;108518;1267;22682;-82
2022/07/26 03:48:34;;;;;;;4.80;3.80;;;;;;;20.30;51.35;96015.15;108510;1268;22653;-82
2022/07/26 03:51:08;;;;;;;5.00;4.00;;;;;;;20.32;51.35;96008.11;108504;1267;22553;-81
2022/07/26 03:53:53;;;;;;;5.60;4.00;;;;;;;20.34;51.43;96007.75;106598;1267;2375421;-82
2022/07/26 03:56:30;;;;;;;4.20;3.50;;;;;;;20.37;51.43;96003.73;108472;1267;22538;-82
2022/07/26 03:59:11;;;;;;;4.30;3.90;;;;;;;20.40;51.29;96003.71;108499;1267;22584;-82
2022/07/26 04:01:47;;;;;;;3.80;3.40;;;;;;;20.43;51.18;96005.90;108570;1268;22577;-82
2022/07/26 04:04:21;;;;;;;4.40;3.60;;;;;;;20.48;51.35;96002.66;107079;1267;1778124;-83
2022/07/26 04:07:05;;;;;;;4.70;3.70;;;;;;;20.55;51.09;96002.11;108531;1268;25358;-82
2022/07/26 04:09:50;;;;;;;6.20;4.00;;;;;;;20.64;50.87;96002.27;108510;1268;22652;-82
2022/07/26 04:12:37;;;;;;;5.30;4.30;;;;;;;20.73;50.85;96004.89;108527;1268;22552;-82
2022/07/26 04:15:21;;;;;;;5.40;4.40;;;;;;;20.82;50.71;96003.79;108051;1267;231415;-82
2022/07/26 04:18:06;;;;;;;5.70;3.80;;;;;;;20.91;50.56;95996.73;108509;1267;22619;-82
2022/07/26 04:20:47;;;;;;;5.30;4.20;;;;;;;20.99;50.43;95995.64;108512;1267;22525;-82
2022/07/26 04:23:21;;;;;;;7.20;3.90;;;;;;;21.09;50.44;95994.80;108519;1267;22730;-81
2022/07/26 04:25:56;;;;;;;4.40;3.90;;;;;;;21.19;50.16;96001.34;108528;1267;22709;-80
2022/07/26 04:28:42;;;;;;;6.40;4.10;;;;;;;21.29;49.99;95999.84;108526;1268;22620;-80
2022/07/26 04:31:24;;;;;;;4.40;3.80;;;;;;;21.41;49.78;95994.78;108536;1267;24028;-80
2022/07/26 04:33:59;;;;;;;4.30;3.90;;;;;;;21.51;49.56;95991.45;104700;1268;4501870;-79
2022/07/26 04:36:42;;;;;;;4.60;3.90;;;;;;;21.58;49.54;95995.03;108295;1267;22585;-80
2022/07/26 04:39:23;;;;;;;6.40;4.00;;;;;;;21.61;49.45;95994.23;108389;1267;22920;-81
2022/07/26 04:42:02;;;;;;;5.20;4.20;;;;;;;21.64;49.31;95995.19;108371;1267;22698;-80
2022/07/26 04:44:36;;;;;;;6.70;3.70;;;;;;;21.62;49.19;95989.23;108152;1267;133547;-80
2022/07/26 04:47:10;;;;;;;10.40;5.60;;;;;;;21.59;49.25;95994.89;108374;1267;22995;-80
2022/07/26 04:49:43;;;;;;;5.20;3.90;;;;;;;21.59;49.26;95998.66;108373;1267;22545;-80
2022/07/26 04:52:19;;;;;;;6.40;3.90;;;;;;;21.61;49.27;95999.45;108394;1267;23326;-82
2022/07/26 04:54:50;;;;;;;5.90;4.10;;;;;;;21.63;49.27;96000.02;102917;1267;7136704;-83
2022/07/26 04:57:25;;;;;;;6.10;3.90;;;;;;;21.66;49.33;96000.22;108369;1267;23285;-82
2022/07/26 05:00:08;;;;;;;5.90;4.00;;;;;;;21.71;49.35;96000.15;108385;1265;22539;-82
2022/07/26 05:02:42;;;;;;;4.70;4.30;;;;;;;21.77;49.43;95998.22;108380;1267;22669;-76
2022/07/26 05:05:13;;;;;;;5.00;4.30;;;;;;;21.91;49.10;96004.03;108297;1268;27481;-78
2022/07/26 05:07:46;;;;;;;4.70;4.00;;;;;;;22.24;48.82;96005.79;108386;1267;22552;-78
2022/07/26 05:10:18;;;;;;;5.10;4.60;;;;;;;22.89;48.28;96005.85;108392;1267;22530;-78
2022/07/26 05:12:50;;;;;;;7.40;4.20;;;;;;;23.94;47.22;96002.08;108414;1267;25371;-78
2022/07/26 05:15:21;;;;;;;4.00;3.70;;;;;;;25.33;45.61;96003.91;108279;1268;27486;-77
2022/07/26 05:17:55;;;;;;;4.70;3.90;;;;;;;26.50;43.11;96007.98;108337;1267;22552;-79
2022/07/26 05:20:27;;;;;;;4.00;3.70;;;;;;;27.04;41.86;96007.33;108345;1265;22575;-81
2022/07/26 05:22:59;;;;;;;5.00;3.90;;;;;;;26.68;41.40;96003.66;108399;1267;22615;-79
2022/07/26 05:25:30;;;;;;;4.40;3.90;;;;;;;26.96;41.49;96003.79;108331;1267;26014;-80
2022/07/26 05:28:02;;;;;;;4.70;4.20;;;;;;;27.41;40.27;96003.31;108383;1267;22561;-80
2022/07/26 05:30:33;;;;;;;3.80;3.50;;;;;;;26.90;40.35;96002.27;108356;1267;22571;-80
2022/07/26 05:33:05;;;;;;;4.80;4.20;;;;;;;26.55;40.71;96010.87;108402;1267;22545;-81
2022/07/26 05:35:37;;;;;;;4.10;3.70;;;;;;;26.17;41.05;96006.73;108257;1267;46178;-81
2022/07/26 05:38:08;;;;;;;4.90;4.00;;;;;;;25.96;41.58;96009.08;108380;1267;23284;-81
2022/07/26 05:40:42;;;;;;;5.20;4.00;;;;;;;26.32;41.36;96007.23;108383;1267;25924;-81
2022/07/26 05:43:14;;;;;;;4.40;4.00;;;;;;;26.55;40.66;96002.17;108351;1267;24013;-80
2022/07/26 05:45:46;;;;;;;5.80;4.00;;;;;;;26.63;40.60;95999.33;108315;1267;29138;-79
2022/07/26 05:48:17;;;;;;;5.10;4.20;;;;;;;26.85;40.39;96002.39;108375;1267;22711;-81
2022/07/26 05:50:49;;;;;;;4.20;3.80;;;;;;;26.67;40.14;95997.83;108364;1266;22545;-81
2022/07/26 05:53:20;;;;;;;5.10;3.60;;;;;;;26.53;40.43;96000.39;108436;1267;22549;-79
2022/07/26 05:55:52;;;;;;;5.40;4.10;;;;;;;26.58;40.60;96002.86;108373;1267;30188;-80
2022/07/26 05:58:23;;;;;;;6.30;4.00;;;;;;;27.40;40.35;96000.80;108419;1267;23321;-83
2022/07/26 06:00:55;;;;;;;4.90;4.00;;;;;;;28.32;39.15;96003.02;108429;1267;23059;-80
2022/07/26 06:03:26;;;;;;;4.20;3.80;;;;;;;29.21;38.33;96006.70;108467;1267;22894;-79
2022/07/26 06:05:59;;;;;;;4.40;3.90;;;;;;;30.40;36.81;96005.37;108395;1267;47340;-80
2022/07/26 06:08:30;;;;;;;4.60;4.00;;;;;;;31.60;35.24;95998.05;108438;1267;22569;-80
2022/07/26 06:11:02;;;;;;;4.00;3.30;;;;;;;32.37;34.58;95996.39;108415;1267;22557;-82
2022/07/26 07:57:52;;;;;;;5.70;5.20;;;;;;;30.97;34.73;96084.58;104767;1309;545071;-82
2022/07/26 08:00:26;;;;;;;6.90;5.30;;;;;;;31.63;33.41;96090.67;107847;1280;23871;-79
2022/07/26 08:02:56;;;;;;;6.00;5.50;;;;;;;30.55;34.54;96095.80;108157;1274;23819;-78
2022/07/26 08:05:28;;;;;;;6.10;5.50;;;;;;;29.64;36.58;96093.04;108001;1272;31145;-78
2022/07/26 08:07:59;;;;;;;8.10;5.60;;;;;;;28.93;37.76;96085.41;108024;1274;22829;-79
2022/07/26 08:10:30;;;;;;;6.20;5.60;;;;;;;28.46;38.93;96102.42;107850;1274;398690;-78
2022/07/26 08:13:01;;;;;;;6.70;6.00;;;;;;;28.04;39.81;96118.48;108246;1273;22533;-77
2022/07/26 08:15:32;;;;;;;6.70;5.90;;;;;;;28.02;40.13;96112.13;108079;1273;25590;-79
2022/07/26 08:18:03;;;;;;;6.40;5.80;;;;;;;27.77;40.76;96117.71;108162;1273;25251;-79
2022/07/26 08:20:34;;;;;;;7.60;6.80;;;;;;;27.76;41.32;96115.94;108199;1272;22541;-78
2022/07/26 08:23:06;;;;;;;6.40;5.90;;;;;;;27.92;41.06;96123.83;108200;1272;22718;-78
2022/07/26 08:25:38;;;;;;;7.30;6.40;;;;;;;27.66;41.77;96127.06;108124;1273;24025;-78
2022/07/26 08:28:09;;;;;;;7.70;6.30;;;;;;;27.33;42.64;96135.91;108195;1273;23017;-78
2022/07/26 08:30:43;;;;;;;10.30;7.90;;;;;;;27.17;43.73;96146.03;108124;1273;22545;-80
2022/07/26 08:33:15;;;;;;;9.30;7.40;;;;;;;27.01;44.74;96147.73;108201;1273;23019;-80
2022/07/26 08:35:47;;;;;;;13.70;7.80;;;;;;;26.69;45.50;96155.39;108114;1273;35956;-80
2022/07/26 08:38:18;;;;;;;9.90;8.20;;;;;;;26.42;46.49;96157.71;108210;1274;25365;-78
2022/07/26 08:40:53;;;;;;;11.10;8.70;;;;;;;26.09;47.50;96162.48;108189;1273;22554;-78
2022/07/26 08:43:25;;;;;;;9.40;7.50;;;;;;;25.76;48.35;96176.70;108202;1274;25300;-80
2022/07/26 08:46:02;;;;;;;11.20;8.40;;;;;;;25.58;49.02;96177.04;108179;1274;23557;-81
2022/07/26 08:48:33;;;;;;;9.10;8.30;;;;;;;25.60;49.19;96185.25;108266;1274;25493;-82
2022/07/26 09:48:01;;;;;;;16.20;14.50;;;;;;;22.59;63.87;96273.35;104760;1307;545205;-80
2022/07/26 09:50:34;;;;;;;14.40;12.90;;;;;;;22.56;63.98;96282.86;107769;1280;22683;-80
2022/07/26 09:53:08;;;;;;;15.40;13.90;;;;;;;22.56;64.17;96289.81;107808;1280;24336;-80
2022/07/26 09:55:56;;;;;;;16.70;15.20;;;;;;;22.45;64.34;96289.57;107478;1281;32136;-79
2022/07/26 09:58:29;;;;;;;15.90;14.40;;;;;;;22.47;64.37;96296.00;107605;1282;24221;-81
2022/07/26 10:01:00;;;;;;;15.90;14.20;;;;;;;22.45;64.87;96294.05;107261;1280;272342;-80
2022/07/26 10:03:33;;;;;;;15.60;14.10;;;;;;;22.38;65.06;96298.88;108391;1269;24897;-80
2022/07/26 10:06:05;;;;;;;16.00;14.50;;;;;;;22.33;65.27;96297.39;108412;1268;22558;-80
2022/07/26 10:08:36;;;;;;;16.20;14.50;;;;;;;22.34;65.42;96295.02;108418;1268;22559;-80
2022/07/26 10:11:09;;;;;;;17.50;15.90;;;;;;;22.34;65.52;96294.71;108416;1270;22596;-80
2022/07/26 10:13:40;;;;;;;17.70;16.00;;;;;;;22.22;65.81;96291.75;108431;1270;24893;-79
2022/07/26 10:16:30;;;;;;;17.80;16.20;;;;;;;22.21;66.26;96284.63;108365;1269;22640;-80
2022/07/26 10:19:03;;;;;;;;;;;;;;;22.18;66.72;96288.67;108382;1270;22527;-81
2022/07/26 10:21:34;;;;;;;18.60;16.80;;;;;;;22.13;67.24;96292.94;108386;1268;22760;-81
2022/07/26 10:24:24;;;;;;;18.70;16.80;;;;;;;22.06;67.61;96295.87;108298;1268;28164;-80
2022/07/26 10:26:55;;;;;;;19.70;17.40;;;;;;;21.89;68.19;96305.51;108444;1268;22501;-79
2022/07/26 10:29:28;;;;;;;19.00;17.30;;;;;;;21.80;68.34;96313.59;108455;1270;22541;-80
2022/07/26 10:32:20;;;;;;;19.40;17.50;;;;;;;21.83;68.58;96318.45;108565;1268;23775;-80
2022/07/26 10:34:51;;;;;;;19.80;17.90;;;;;;;21.79;68.64;96321.98;108191;1270;28233;-79
2022/07/26 10:37:28;;;;;;;18.90;17.20;;;;;;;21.77;68.78;96325.41;108444;1268;25413;-80
2022/07/26 10:40:19;;;;;;;19.30;17.50;;;;;;;21.69;68.97;96333.59;108384;1270;24246;-77
2022/07/26 10:42:51;;;;;;;19.20;17.30;;;;;;;21.59;69.16;96343.80;108427;1266;22560;-80
2022/07/26 10:45:24;;;;;;;19.10;17.30;;;;;;;21.48;69.60;96348.66;108349;1268;32913;-80
2022/07/26 10:48:19;;;;;;;20.30;18.30;;;;;;;21.35;70.23;96349.70;108419;1270;22628;-80
2022/07/26 10:50:53;;;;;;;20.80;18.80;;;;;;;21.17;70.65;96360.09;108458;1270;22525;-79
2022/07/26 10:53:26;;;;;;;20.20;18.30;;;;;;;21.10;71.21;96361.24;108444;1270;22558;-79
2022/07/26 10:56:00;;;;;;;20.80;18.80;;;;;;;21.03;71.48;96359.78;108513;1270;22591;-79
2022/07/26 10:58:43;;;;;;;20.10;18.30;;;;;;;20.98;71.89;96364.90;108460;1267;23906;-79
2022/07/26 11:01:14;;;;;;;20.10;18.00;;;;;;;20.88;72.74;96367.45;108401;1270;24250;-79
2022/07/26 11:03:45;;;;;;;20.30;18.20;;;;;;;20.78;73.06;96364.73;108359;1270;30613;-80
2022/07/26 11:06:19;;;;;;;19.20;17.30;;;;;;;20.69;73.71;96365.02;108403;1271;22622;-80
2022/07/26 11:08:50;;;;;;;19.20;17.20;;;;;;;20.66;74.21;96362.07;108263;1270;25216;-80
2022/07/26 11:11:32;;;;;;;19.20;17.50;;;;;;;20.66;74.35;96366.31;108390;1270;23407;-80
2022/07/26 11:14:11;;;;;;;18.80;17.10;;;;;;;20.71;74.43;96371.38;108352;1270;41257;-81
2022/07/26 11:16:45;;;;;;;18.60;16.80;;;;;;;20.67;74.83;96373.13;108424;1270;23078;-81
2022/07/26 11:19:19;;;;;;;21.40;18.20;;;;;;;20.59;75.00;96369.92;108415;1270;22670;-81
2022/07/26 11:21:57;;;;;;;26.90;24.30;;;;;;;20.47;75.66;96372.26;108419;1268;22531;-81
2022/07/26 11:24:31;;;;;;;23.30;20.80;;;;;;;20.38;76.00;96373.77;108388;1270;24174;-81
2022/07/26 11:27:06;;;;;;;27.50;24.80;;;;;;;20.26;76.74;96372.38;108438;1270;25373;-81
2022/07/26 11:29:39;;;;;;;28.20;25.40;;;;;;;20.20;77.19;96376.15;108401;1270;22553;-81
2022/07/26 11:32:21;;;;;;;26.90;24.20;;;;;;;20.16;77.42;96380.08;108445;1270;22749;-81
2022/07/26 11:35:04;;;;;;;27.70;24.90;;;;;;;20.15;77.52;96378.81;108326;1270;29942;-81
2022/07/26 11:37:37;;;;;;;29.90;26.90;;;;;;;20.15;77.76;96383.52;108432;1270;22719;-81
2022/07/26 11:40:13;;;;;;;29.70;26.40;;;;;;;20.20;77.77;96386.14;108390;1270;24260;-81
2022/07/26 11:42:53;;;;;;;23.00;20.80;;;;;;;20.26;77.76;96380.98;108518;1269;23114;-81
2022/07/26 11:45:27;;;;;;;19.50;17.70;;;;;;;20.30;77.80;96375.65;108344;1268;32307;-81
2022/07/26 11:48:00;;;;;;;19.60;17.80;;;;;;;20.25;78.17;96373.83;108415;1267;24246;-81
2022/07/26 11:50:32;;;;;;;21.00;19.00;;;;;;;20.24;78.41;96373.08;108398;1268;22531;-81
2022/07/26 11:53:22;;;;;;;19.00;17.10;;;;;;;20.27;78.61;96372.62;108393;1267;22541;-82
2022/07/26 11:56:09;;;;;;;18.30;16.50;;;;;;;20.31;78.87;96367.38;108400;1268;22530;-81
2022/07/26 11:58:42;;;;;;;19.00;17.30;;;;;;;20.35;78.67;96365.62;108423;1268;23913;-81
2022/07/26 12:01:16;;;;;;;20.50;18.70;;;;;;;20.33;78.77;96359.56;108439;1268;22555;-81
2022/07/26 12:03:49;;;;;;;19.80;17.90;;;;;;;20.34;78.85;96357.36;108404;1270;28312;-81
2022/07/26 12:06:23;;;;;;;28.50;19.80;;;;;;;20.44;79.18;96354.94;108401;1270;25140;-80
2022/07/26 12:08:55;;;;;;;20.10;17.90;;;;;;;20.50;78.89;96355.15;108437;1270;25240;-80
2022/07/26 12:11:37;;;;;;;23.20;19.40;;;;;;;20.46;78.69;96355.55;108437;1269;22654;-80
2022/07/26 12:14:09;;;;;;;23.30;17.10;;;;;;;20.42;78.85;96358.42;108307;1270;28305;-80
2022/07/26 12:16:46;;;;;;;18.50;15.60;;;;;;;20.42;78.82;96358.06;108406;1270;22522;-80
2022/07/26 12:19:29;;;;;;;17.80;15.70;;;;;;;20.37;78.74;96357.50;108402;1269;22564;-80
2022/07/26 12:22:10;;;;;;;17.50;15.60;;;;;;;20.25;79.52;96346.52;108432;1270;22476;-81
2022/07/26 12:24:45;;;;;;;18.70;15.80;;;;;;;20.00;80.62;96350.58;108443;1270;32951;-80
2022/07/26 12:27:19;;;;;;;21.10;17.70;;;;;;;19.91;80.82;96356.10;108401;1270;24726;-80
2022/07/26 12:29:52;;;;;;;19.70;15.30;;;;;;;19.88;81.05;96353.96;108452;1270;22530;-79
2022/07/26 12:32:31;;;;;;;22.00;19.90;;;;;;;19.85;81.78;96358.48;108438;1269;24697;-80
2022/07/26 12:35:05;;;;;;;26.50;22.00;;;;;;;19.80;82.09;96362.20;108317;1270;39887;-80
2022/07/26 12:37:39;;;;;;;27.20;23.10;;;;;;;19.82;82.39;96358.15;108424;1269;23887;-80
2022/07/26 12:40:14;;;;;;;27.20;24.30;;;;;;;19.80;82.93;96358.49;108376;1267;22551;-80
2022/07/26 12:42:56;;;;;;;34.30;24.60;;;;;;;19.72;83.58;96358.85;108442;1268;24330;-80
2022/07/26 12:45:32;;;;;;;26.30;23.60;;;;;;;19.72;84.09;96359.13;108341;1268;32811;-80
2022/07/26 12:48:09;;;;;;;28.20;24.10;;;;;;;19.77;84.18;96357.33;108426;1270;22722;-80
2022/07/26 12:50:40;;;;;;;36.80;24.50;;;;;;;19.77;84.96;96357.49;108467;1266;22596;-80
2022/07/26 12:53:12;;;;;;;30.10;24.70;;;;;;;19.75;85.38;96357.30;108410;1267;22559;-81
2022/07/26 12:55:43;;;;;;;30.90;26.40;;;;;;;19.76;85.45;96355.33;108343;1268;24648;-80
2022/07/26 12:58:14;;;;;;;25.60;22.50;;;;;;;19.74;85.91;96354.98;108375;1267;22884;-81
2022/07/26 13:00:45;;;;;;;26.00;22.40;;;;;;;19.71;85.94;96356.92;108424;1270;24237;-81
2022/07/26 13:03:17;;;;;;;27.60;24.60;;;;;;;19.71;86.12;96359.10;108409;1268;22699;-80
2022/07/26 13:05:48;;;;;;;22.50;20.10;;;;;;;19.74;86.19;96353.58;108338;1270;29877;-81
2022/07/26 13:08:19;;;;;;;28.90;22.10;;;;;;;19.74;86.04;96352.52;108411;1270;23248;-80
2022/07/26 13:10:52;;;;;;;29.10;22.50;;;;;;;19.70;86.27;96353.14;108377;1270;22631;-81
2022/07/26 13:13:23;;;;;;;26.20;21.60;;;;;;;19.69;86.42;96353.41;108423;1268;22546;-80
2022/07/26 13:15:57;;;;;;;27.00;21.30;;;;;;;19.65;86.69;96346.39;108426;1270;22799;-80
2022/07/26 13:18:28;;;;;;;24.10;21.60;;;;;;;19.61;87.17;96353.98;108408;1268;22562;-81
2022/07/26 13:21:00;;;;;;;24.70;21.20;;;;;;;19.61;87.40;96357.74;108398;1270;22677;-81
2022/07/26 13:23:34;;;;;;;22.70;20.40;;;;;;;19.64;87.46;96360.30;108337;1270;27129;-80
2022/07/26 13:26:05;;;;;;;21.60;18.70;;;;;;;19.67;87.35;96361.20;108401;1269;22555;-81
2022/07/26 13:28:39;;;;;;;20.40;16.00;;;;;;;19.71;87.08;96356.73;108409;1268;22544;-80
2022/07/26 13:31:13;;;;;;;21.60;19.30;;;;;;;19.70;87.06;96363.52;108425;1270;22557;-80
2022/07/26 13:33:44;;;;;;;25.60;16.50;;;;;;;19.71;87.03;96365.80;108355;1270;25719;-80
2022/07/26 13:36:16;;;;;;;18.00;15.00;;;;;;;19.68;86.84;96359.40;108398;1270;22780;-81
2022/07/26 13:38:48;;;;;;;16.00;14.40;;;;;;;19.65;86.77;96366.08;108394;1270;22567;-81
2022/07/26 13:41:19;;;;;;;15.30;13.60;;;;;;;19.62;86.85;96371.69;108433;1270;23072;-80
2022/07/26 13:43:52;;;;;;;15.20;13.70;;;;;;;19.58;86.77;96373.51;108363;1268;27333;-80
2022/07/26 13:46:28;;;;;;;19.40;14.30;;;;;;;19.55;87.04;96379.25;108426;1268;24249;-81
2022/07/26 13:49:02;;;;;;;16.60;13.50;;;;;;;19.54;87.25;96381.35;108417;1267;22536;-81
2022/07/26 13:54:38;;;;;;;14.00;12.30;;;;;;;19.47;87.91;96385.70;108345;1267;32108;-80
2022/07/26 13:57:12;;;;;;;14.10;11.10;;;;;;;19.48;87.94;96387.23;108473;1268;22598;-80
2022/07/26 13:59:46;;;;;;;16.10;10.90;;;;;;;19.49;88.02;96383.73;108406;1267;22529;-78
2022/07/26 14:02:17;;;;;;;9.70;8.70;;;;;;;19.45;88.18;96383.71;108434;1267;25244;-80
2022/07/26 14:04:52;;;;;;;12.20;7.80;;;;;;;19.43;88.42;96385.79;108364;1270;26026;-80
2022/07/26 14:07:24;;;;;;;10.60;6.90;;;;;;;19.43;88.21;96389.44;108384;1267;22587;-80
2022/07/26 14:09:58;;;;;;;11.00;7.40;;;;;;;19.46;88.37;96393.65;108414;1268;24356;-81
2022/07/26 14:12:30;;;;;;;9.60;5.70;;;;;;;19.44;88.30;96399.14;108422;1267;22526;-81
2022/07/26 14:15:01;;;;;;;7.50;5.10;;;;;;;19.42;88.20;96405.80;108352;1268;28212;-80
2022/07/26 14:17:32;;;;;;;7.80;3.40;;;;;;;19.38;88.33;96419.36;108423;1268;22706;-79
2022/07/26 14:20:11;;;;;;;7.90;3.30;;;;;;;19.31;87.87;96417.92;108413;1268;23460;-79
2022/07/26 14:22:43;;;;;;;3.60;2.20;;;;;;;19.25;87.73;96418.91;108519;1267;25252;-79
2022/07/26 14:25:15;;;;;;;3.20;2.00;;;;;;;19.09;87.77;96414.74;108288;1270;45073;-78
2022/07/26 14:27:46;;;;;;;1.70;1.50;;;;;;;18.90;88.19;96418.90;108411;1270;22628;-80
2022/07/26 14:30:18;;;;;;;3.10;2.00;;;;;;;18.80;87.73;96424.64;108384;1270;22628;-79
2022/07/26 14:32:50;;;;;;;3.00;2.30;;;;;;;18.76;87.83;96415.92;108496;1267;22549;-80
2022/07/26 14:35:21;;;;;;;3.10;2.80;;;;;;;18.57;87.94;96420.80;108436;1268;30610;-80
2022/07/26 14:37:52;;;;;;;4.50;3.20;;;;;;;18.42;88.17;96418.48;108458;1267;22899;-81